createdAt,value
2018-07-17T00:01:38.318Z,20.30
2018-07-17T00:04:07.071Z,20.20
2018-07-17T00:06:35.845Z,20.20
2018-07-17T00:09:05.842Z,20.10
2018-07-17T00:11:34.690Z,20.10
2018-07-17T00:16:31.966Z,20.10
2018-07-17T00:21:29.159Z,20.10
2018-07-17T00:23:57.978Z,20.10
2018-07-17T00:26:26.742Z,20.10
2018-07-17T00:28:55.481Z,20.00
2018-07-17T00:34:21.201Z,19.90
2018-07-17T00:36:50.360Z,19.70
2018-07-17T00:39:19.242Z,19.70
2018-07-17T00:41:47.985Z,19.70
2018-07-17T00:44:16.753Z,19.70
2018-07-17T00:46:45.582Z,19.60
2018-07-17T00:51:42.818Z,19.60
2018-07-17T00:54:11.680Z,19.70
2018-07-17T00:56:40.442Z,19.60
2018-07-17T01:01:43.094Z,19.50
2018-07-17T01:04:17.389Z,19.50
2018-07-17T01:06:51.667Z,19.40
2018-07-17T01:11:59.926Z,19.40
2018-07-17T01:14:35.401Z,19.30
2018-07-17T01:17:04.165Z,19.30
2018-07-17T01:19:32.949Z,19.30
2018-07-17T01:22:01.734Z,19.20
2018-07-17T01:24:30.469Z,19.30
2018-07-17T01:26:59.224Z,19.20
2018-07-17T01:29:28.010Z,19.10
2018-07-17T01:31:56.761Z,19.10
2018-07-17T01:34:25.542Z,19.10
2018-07-17T01:36:54.290Z,19.10
2018-07-17T01:39:23.077Z,19.00
2018-07-17T01:41:51.897Z,19.00
2018-07-17T01:44:20.661Z,19.00
2018-07-17T01:46:49.434Z,18.90
2018-07-17T01:49:18.212Z,18.90
2018-07-17T01:51:46.977Z,18.90
2018-07-17T01:54:15.749Z,18.90
2018-07-17T01:59:12.997Z,18.80
2018-07-17T02:01:41.772Z,18.80
2018-07-17T02:04:10.549Z,18.80
2018-07-17T02:06:39.536Z,18.80
2018-07-17T02:09:08.281Z,18.80
2018-07-17T02:14:05.526Z,18.70
2018-07-17T02:16:34.298Z,18.70
2018-07-17T02:19:03.119Z,18.70
2018-07-17T02:24:00.485Z,18.60
2018-07-17T02:26:29.238Z,18.60
2018-07-17T02:28:58.010Z,18.60
2018-07-17T02:31:26.798Z,18.50
2018-07-17T02:33:55.616Z,18.60
2018-07-17T02:36:24.401Z,18.50
2018-07-17T02:38:53.194Z,18.50
2018-07-17T02:41:21.958Z,18.50
2018-07-17T02:43:50.786Z,18.40
2018-07-17T02:46:19.538Z,18.40
2018-07-17T02:48:48.326Z,18.40
2018-07-17T02:51:17.074Z,18.40
2018-07-17T02:53:45.846Z,18.40
2018-07-17T02:56:14.593Z,18.40
2018-07-17T02:58:43.354Z,18.40
2018-07-17T03:01:12.118Z,18.30
2018-07-17T03:06:09.359Z,18.30
2018-07-17T03:08:38.174Z,18.30
2018-07-17T03:11:06.933Z,18.30
2018-07-17T03:13:35.706Z,18.20
2018-07-17T03:16:04.450Z,18.20
2018-07-17T03:18:33.214Z,18.20
2018-07-17T03:21:02.010Z,18.10
2018-07-17T03:23:30.773Z,18.10
2018-07-17T03:25:59.584Z,18.10
2018-07-17T03:28:28.369Z,18.10
2018-07-17T03:30:57.130Z,18.10
2018-07-17T03:33:25.902Z,18.00
2018-07-17T03:35:54.651Z,18.10
2018-07-17T03:40:51.905Z,18.00
2018-07-17T03:43:20.681Z,18.00
2018-07-17T03:45:49.466Z,18.00
2018-07-17T03:48:18.228Z,18.00
2018-07-17T03:50:47.031Z,18.00
2018-07-17T03:53:15.773Z,18.00
2018-07-17T03:55:44.550Z,18.00
2018-07-17T03:58:13.322Z,18.10
2018-07-17T04:00:42.315Z,18.10
2018-07-17T04:03:11.092Z,18.10
2018-07-17T04:05:39.869Z,18.10
2018-07-17T04:08:08.641Z,18.10
2018-07-17T04:10:37.401Z,18.10
2018-07-17T04:15:34.646Z,18.20
2018-07-17T04:18:03.429Z,18.10
2018-07-17T04:20:32.202Z,18.20
2018-07-17T04:23:01.001Z,18.20
2018-07-17T04:25:29.781Z,18.20
2018-07-17T04:27:58.553Z,18.20
2018-07-17T04:30:27.313Z,18.20
2018-07-17T04:32:56.090Z,18.30
2018-07-17T04:35:24.854Z,18.30
2018-07-17T04:40:22.525Z,18.40
2018-07-17T04:42:51.277Z,18.50
2018-07-17T04:45:20.062Z,18.50
2018-07-17T04:47:48.862Z,18.60
2018-07-17T04:50:17.653Z,18.60
2018-07-17T04:52:46.402Z,18.60
2018-07-17T04:55:15.165Z,18.60
2018-07-17T04:57:43.926Z,18.70
2018-07-17T05:00:12.713Z,18.70
2018-07-17T05:02:41.485Z,18.80
2018-07-17T05:05:10.250Z,18.90
2018-07-17T05:07:39.108Z,18.90
2018-07-17T05:10:08.233Z,18.90
2018-07-17T05:12:37.007Z,18.90
2018-07-17T05:17:34.277Z,19.00
2018-07-17T05:20:03.184Z,19.00
2018-07-17T05:22:31.998Z,19.00
2018-07-17T05:25:00.818Z,19.10
2018-07-17T05:27:29.777Z,19.10
2018-07-17T05:29:58.540Z,19.20
2018-07-17T05:32:27.399Z,19.20
2018-07-17T05:34:56.200Z,19.20
2018-07-17T05:37:24.950Z,19.20
2018-07-17T05:39:53.741Z,19.30
2018-07-17T05:42:22.551Z,19.30
2018-07-17T05:44:51.324Z,19.30
2018-07-17T05:47:23.981Z,19.40
2018-07-17T05:49:52.741Z,19.40
2018-07-17T05:52:21.497Z,19.40
2018-07-17T05:54:50.286Z,19.50
2018-07-17T05:57:19.077Z,19.50
2018-07-17T05:59:47.845Z,19.50
2018-07-17T06:02:16.729Z,19.60
2018-07-17T06:04:45.498Z,19.70
2018-07-17T06:07:14.274Z,19.70
2018-07-17T06:09:43.009Z,19.70
2018-07-17T06:12:11.774Z,19.80
2018-07-17T06:14:40.526Z,19.90
2018-07-17T06:17:09.313Z,20.00
2018-07-17T06:19:38.073Z,20.00
2018-07-17T06:22:07.043Z,20.10
2018-07-17T06:24:35.807Z,20.10
2018-07-17T06:27:04.752Z,20.10
2018-07-17T06:29:33.657Z,20.10
2018-07-17T06:32:02.512Z,20.20
2018-07-17T06:34:31.290Z,20.30
2018-07-17T06:37:00.058Z,20.40
2018-07-17T06:39:28.804Z,20.40
2018-07-17T06:41:57.561Z,20.50
2018-07-17T06:44:26.344Z,20.50
2018-07-17T06:46:55.270Z,20.60
2018-07-17T06:49:24.030Z,20.70
2018-07-17T06:51:52.853Z,20.80
2018-07-17T06:54:21.602Z,20.80
2018-07-17T06:56:50.397Z,20.80
2018-07-17T06:59:19.178Z,20.80
2018-07-17T07:01:47.942Z,20.90
2018-07-17T07:04:16.759Z,21.00
2018-07-17T07:06:45.521Z,21.10
2018-07-17T07:09:14.265Z,21.10
2018-07-17T07:11:43.038Z,21.10
2018-07-17T07:14:11.797Z,21.30
2018-07-17T07:16:40.553Z,21.30
2018-07-17T07:19:09.315Z,21.40
2018-07-17T07:21:38.122Z,21.50
2018-07-17T07:24:06.894Z,21.60
2018-07-17T07:26:35.713Z,21.70
2018-07-17T07:29:04.465Z,21.70
2018-07-17T07:31:33.266Z,21.70
2018-07-17T07:34:02.018Z,21.80
2018-07-17T07:36:30.781Z,21.90
2018-07-17T07:38:59.537Z,22.00
2018-07-17T07:41:28.317Z,22.00
2018-07-17T07:43:57.097Z,22.10
2018-07-17T07:46:25.866Z,22.20
2018-07-17T07:48:54.627Z,22.30
2018-07-17T07:51:23.394Z,22.40
2018-07-17T07:53:52.241Z,22.20
2018-07-17T07:56:21.021Z,22.30
2018-07-17T07:58:50.046Z,22.30
2018-07-17T08:01:18.872Z,22.50
2018-07-17T08:03:47.843Z,22.50
2018-07-17T08:06:16.577Z,22.60
2018-07-17T08:08:45.430Z,22.70
2018-07-17T08:11:14.290Z,22.70
2018-07-17T08:13:43.055Z,22.70
2018-07-17T08:16:11.817Z,22.70
2018-07-17T08:18:40.581Z,22.80
2018-07-17T08:21:09.353Z,22.80
2018-07-17T08:26:06.603Z,22.90
2018-07-17T08:28:35.402Z,23.00
2018-07-17T08:31:04.238Z,23.10
2018-07-17T08:33:33.229Z,23.10
2018-07-17T08:36:02.020Z,23.20
2018-07-17T08:38:30.767Z,23.20
2018-07-17T08:40:59.545Z,23.30
2018-07-17T08:43:28.476Z,23.30
2018-07-17T08:45:57.377Z,23.30
2018-07-17T08:48:26.149Z,23.40
2018-07-17T08:50:54.929Z,23.50
2018-07-17T08:53:23.761Z,23.70
2018-07-17T08:55:52.510Z,23.70
2018-07-17T08:58:21.290Z,23.70
2018-07-17T09:03:18.693Z,23.80
2018-07-17T09:05:47.494Z,23.80
2018-07-17T09:08:16.298Z,23.90
2018-07-17T09:10:45.781Z,24.00
2018-07-17T09:13:14.753Z,24.10
2018-07-17T09:18:11.873Z,24.20
2018-07-17T09:20:40.805Z,24.40
2018-07-17T09:23:09.577Z,24.50
2018-07-17T09:28:06.979Z,24.60
2018-07-17T09:30:41.081Z,24.60
2018-07-17T09:33:09.856Z,24.80
2018-07-17T09:35:38.621Z,24.90
2018-07-17T09:38:08.166Z,25.10
2018-07-17T09:40:37.150Z,25.10
2018-07-17T09:45:34.404Z,25.30
2018-07-17T09:48:03.198Z,25.40
2018-07-17T09:50:31.974Z,25.50
2018-07-17T09:53:00.745Z,25.70
2018-07-17T09:55:29.509Z,25.80
2018-07-17T09:57:58.473Z,25.80
2018-07-17T10:00:32.676Z,25.90
2018-07-17T10:03:01.742Z,25.90
2018-07-17T10:05:30.506Z,26.20
2018-07-17T10:07:59.290Z,26.40
2018-07-17T10:10:28.054Z,26.50
2018-07-17T10:12:56.830Z,26.50
2018-07-17T10:17:54.098Z,26.80
2018-07-17T10:22:51.381Z,27.00
2018-07-17T10:27:48.634Z,27.00
2018-07-17T10:30:17.513Z,27.20
2018-07-17T10:32:46.293Z,27.50
2018-07-17T10:35:15.062Z,27.50
2018-07-17T10:37:43.830Z,27.50
2018-07-17T10:40:12.617Z,27.80
2018-07-17T10:42:41.381Z,27.90
2018-07-17T10:45:10.241Z,28.00
2018-07-17T10:47:39.141Z,28.10
2018-07-17T10:50:07.858Z,28.20
2018-07-17T10:55:05.102Z,28.50
2018-07-17T10:57:33.865Z,28.70
2018-07-17T11:00:02.633Z,28.90
2018-07-17T11:02:31.453Z,29.00
2018-07-17T11:05:00.225Z,28.80
2018-07-17T11:07:29.076Z,29.10
2018-07-17T11:09:57.966Z,29.20
2018-07-17T11:12:29.885Z,29.60
2018-07-17T11:14:58.673Z,29.80
2018-07-17T11:17:27.426Z,29.70
2018-07-17T11:19:56.238Z,29.60
2018-07-17T11:22:25.047Z,29.80
2018-07-17T11:24:53.741Z,29.80
2018-07-17T11:27:22.499Z,29.80
2018-07-17T11:29:51.280Z,30.30
2018-07-17T11:32:20.351Z,30.50
2018-07-17T11:34:49.183Z,30.60
2018-07-17T11:37:19.933Z,30.60
2018-07-17T11:42:17.260Z,30.80
2018-07-17T11:44:46.278Z,31.10
2018-07-17T11:47:15.053Z,30.80
2018-07-17T11:49:43.809Z,31.20
2018-07-17T11:52:12.565Z,31.40
2018-07-17T11:54:41.389Z,30.40
2018-07-17T11:57:10.397Z,30.40
2018-07-17T11:59:39.389Z,30.90
2018-07-17T12:02:08.157Z,30.90
2018-07-17T12:04:36.922Z,31.00
2018-07-17T12:07:05.697Z,31.20
2018-07-17T12:09:34.489Z,31.60
2018-07-17T12:12:03.347Z,31.80
2018-07-17T12:14:32.213Z,31.50
2018-07-17T12:17:00.961Z,31.40
2018-07-17T12:19:29.730Z,31.70
2018-07-17T12:21:58.497Z,31.80
2018-07-17T12:24:27.262Z,32.10
2018-07-17T12:26:56.018Z,32.10
2018-07-17T12:29:24.857Z,32.30
2018-07-17T12:31:53.689Z,32.50
2018-07-17T12:34:22.457Z,32.20
2018-07-17T12:36:51.253Z,32.00
2018-07-17T12:39:20.038Z,32.00
2018-07-17T12:41:48.827Z,32.00
2018-07-17T12:44:18.101Z,32.70
2018-07-17T12:46:46.829Z,33.10
2018-07-17T12:49:15.609Z,33.50
2018-07-17T12:51:44.370Z,33.60
2018-07-17T12:54:13.177Z,33.60
2018-07-17T12:56:41.955Z,33.60
2018-07-17T12:59:11.137Z,33.80
2018-07-17T13:04:08.353Z,33.90
2018-07-17T13:06:37.122Z,34.00
2018-07-17T13:09:07.221Z,33.40
2018-07-17T13:11:36.166Z,33.50
2018-07-17T13:14:04.921Z,34.00
2018-07-17T13:16:33.766Z,34.20
2018-07-17T13:19:02.662Z,34.20
2018-07-17T13:21:31.520Z,34.40
2018-07-17T13:24:00.262Z,34.50
2018-07-17T13:26:29.116Z,33.90
2018-07-17T13:28:57.880Z,33.80
2018-07-17T13:31:26.638Z,34.20
2018-07-17T13:33:55.377Z,34.30
2018-07-17T13:38:52.725Z,33.40
2018-07-17T13:41:21.493Z,33.60
2018-07-17T13:43:51.191Z,34.20
2018-07-17T13:46:19.953Z,34.10
2018-07-17T13:48:48.773Z,34.30
2018-07-17T13:51:17.562Z,34.70
2018-07-17T13:53:46.309Z,35.10
2018-07-17T13:56:15.081Z,34.60
2018-07-17T13:58:43.842Z,34.60
2018-07-17T14:01:12.622Z,34.80
2018-07-17T14:03:41.387Z,34.80
2018-07-17T14:06:10.161Z,35.00
2018-07-17T14:08:38.917Z,34.50
2018-07-17T14:11:07.678Z,34.90
2018-07-17T14:13:36.466Z,34.70
2018-07-17T14:16:05.394Z,35.00
2018-07-17T14:18:34.401Z,35.20
2018-07-17T14:21:03.849Z,35.30
2018-07-17T14:23:32.692Z,35.20
2018-07-17T14:26:02.191Z,35.20
2018-07-17T14:28:31.802Z,35.50
2018-07-17T14:31:00.759Z,35.50
2018-07-17T14:33:29.690Z,35.30
2018-07-17T14:38:26.910Z,34.20
2018-07-17T14:40:55.694Z,33.90
2018-07-17T14:43:24.485Z,34.20
2018-07-17T14:45:53.285Z,34.50
2018-07-17T14:48:22.126Z,35.10
2018-07-17T14:50:50.894Z,35.10
2018-07-17T14:53:19.678Z,35.10
2018-07-17T14:55:48.457Z,34.70
2018-07-17T14:58:17.218Z,34.80
2018-07-17T15:00:46.149Z,35.20
2018-07-17T15:03:14.910Z,34.50
2018-07-17T15:05:43.690Z,34.50
2018-07-17T15:08:12.662Z,35.20
2018-07-17T15:10:41.424Z,34.60
2018-07-17T15:13:10.185Z,34.70
2018-07-17T15:15:39.251Z,34.40
2018-07-17T15:18:07.925Z,34.20
2018-07-17T15:20:36.669Z,34.80
2018-07-17T15:28:02.704Z,35.10
2018-07-17T15:30:31.417Z,34.80
2018-07-17T15:33:00.187Z,34.70
2018-07-17T15:35:28.937Z,35.00
2018-07-17T15:37:58.596Z,34.80
2018-07-17T15:40:27.834Z,34.80
2018-07-17T15:42:56.733Z,35.00
2018-07-17T15:45:25.539Z,34.80
2018-07-17T15:47:54.312Z,34.50
2018-07-17T15:50:23.063Z,34.50
2018-07-17T15:52:51.813Z,34.60
2018-07-17T15:55:20.597Z,34.10
2018-07-17T15:57:49.425Z,34.30
2018-07-17T16:00:18.110Z,34.80
2018-07-17T16:02:46.902Z,34.80
2018-07-17T16:05:15.653Z,34.90
2018-07-17T16:07:44.437Z,34.70
2018-07-17T16:10:13.256Z,34.80
2018-07-17T16:12:42.093Z,34.80
2018-07-17T16:15:10.861Z,35.10
2018-07-17T16:17:39.625Z,35.30
2018-07-17T16:20:08.719Z,34.80
2018-07-17T16:22:37.585Z,35.10
2018-07-17T16:25:06.552Z,35.40
2018-07-17T16:27:35.306Z,35.50
2018-07-17T16:30:05.794Z,35.30
2018-07-17T16:32:34.563Z,35.20
2018-07-17T16:35:03.305Z,35.10
2018-07-17T16:37:32.066Z,35.20
2018-07-17T16:40:00.856Z,35.50
2018-07-17T16:42:31.661Z,35.40
2018-07-17T16:45:00.416Z,35.30
2018-07-17T16:49:57.711Z,35.50
2018-07-17T16:52:26.484Z,35.60
2018-07-17T16:54:55.246Z,35.50
2018-07-17T16:57:24.014Z,35.10
2018-07-17T16:59:52.819Z,35.10
2018-07-17T17:02:21.613Z,35.10
2018-07-17T17:04:50.583Z,35.40
2018-07-17T17:07:19.345Z,35.30
2018-07-17T17:09:48.097Z,35.30
2018-07-17T17:14:45.380Z,35.10
2018-07-17T17:19:42.637Z,34.80
2018-07-17T17:24:40.157Z,34.40
2018-07-17T17:27:08.862Z,34.50
2018-07-17T17:29:37.631Z,34.70
2018-07-17T17:32:06.430Z,34.50
2018-07-17T17:34:35.169Z,34.70
2018-07-17T17:37:03.959Z,34.70
2018-07-17T17:42:01.211Z,34.60
2018-07-17T17:44:29.981Z,34.10
2018-07-17T17:46:58.763Z,34.20
2018-07-17T17:49:27.626Z,34.30
2018-07-17T17:51:56.381Z,34.10
2018-07-17T17:54:25.186Z,34.30
2018-07-17T17:56:53.953Z,33.70
2018-07-17T17:59:22.785Z,33.90
2018-07-17T18:01:51.572Z,33.90
2018-07-17T18:04:20.341Z,33.40
2018-07-17T18:06:49.366Z,33.50
2018-07-17T18:09:18.094Z,33.60
2018-07-17T18:11:46.858Z,33.60
2018-07-17T18:14:15.642Z,33.10
2018-07-17T18:16:44.454Z,33.10
2018-07-17T18:19:13.217Z,33.20
2018-07-17T18:21:41.977Z,33.10
2018-07-17T18:24:10.751Z,33.10
2018-07-17T18:26:39.526Z,33.00
2018-07-17T18:31:36.748Z,32.80
2018-07-17T18:34:05.971Z,32.70
2018-07-17T18:36:34.666Z,32.50
2018-07-17T18:39:04.317Z,32.60
2018-07-17T18:41:33.177Z,33.60
2018-07-17T18:44:01.978Z,34.30
2018-07-17T18:46:30.741Z,34.50
2018-07-17T18:48:59.538Z,34.40
2018-07-17T18:51:28.297Z,34.20
2018-07-17T18:54:00.613Z,33.80
2018-07-17T18:58:58.170Z,33.20
2018-07-17T19:01:26.929Z,32.50
2018-07-17T19:03:55.718Z,31.60
2018-07-17T19:06:24.538Z,30.90
2018-07-17T19:11:21.882Z,30.10
2018-07-17T19:13:50.787Z,29.80
2018-07-17T19:16:19.870Z,29.70
2018-07-17T19:18:48.658Z,29.50
2018-07-17T19:21:17.421Z,29.30
2018-07-17T19:23:46.191Z,29.10
2018-07-17T19:26:14.942Z,28.90
2018-07-17T19:28:43.794Z,28.60
2018-07-17T19:31:12.549Z,28.40
2018-07-17T19:33:41.365Z,28.20
2018-07-17T19:36:10.113Z,28.10
2018-07-17T19:38:38.968Z,27.90
2018-07-17T19:41:07.758Z,27.70
2018-07-17T19:43:36.724Z,27.60
2018-07-17T19:46:05.573Z,27.40
2018-07-17T19:53:31.331Z,27.10
2018-07-17T19:56:00.102Z,27.10
2018-07-17T19:58:28.885Z,27.10
2018-07-17T20:00:57.657Z,27.00
2018-07-17T20:03:27.798Z,26.90
2018-07-17T20:05:56.696Z,26.70
2018-07-17T20:08:25.663Z,26.70
2018-07-17T20:10:54.605Z,26.60
2018-07-17T20:13:23.345Z,26.40
2018-07-17T20:15:52.141Z,26.00
2018-07-17T20:18:22.485Z,25.80
2018-07-17T20:23:19.729Z,25.60
2018-07-17T20:25:48.521Z,25.60
2018-07-17T20:28:17.798Z,25.30
2018-07-17T20:30:46.582Z,25.40
2018-07-17T20:33:15.790Z,25.20
2018-07-17T20:35:44.593Z,25.20
2018-07-17T20:38:13.345Z,25.20
2018-07-17T20:40:42.140Z,25.20
2018-07-17T20:43:10.890Z,25.00
2018-07-17T20:45:39.701Z,24.90
2018-07-17T20:48:08.469Z,24.80
2018-07-17T20:50:37.267Z,24.80
2018-07-17T20:55:34.514Z,24.70
2018-07-17T20:58:03.289Z,24.50
2018-07-17T21:00:32.080Z,24.30
2018-07-17T21:03:00.853Z,24.20
2018-07-17T21:05:29.657Z,24.20
2018-07-17T21:07:58.429Z,24.10
2018-07-17T21:10:27.237Z,24.10
2018-07-17T21:12:56.026Z,24.10
2018-07-17T21:15:24.804Z,24.10
2018-07-17T21:17:53.598Z,24.00
2018-07-17T21:20:22.490Z,23.90
2018-07-17T21:22:51.253Z,23.80
2018-07-17T21:25:20.277Z,23.80
2018-07-17T21:27:48.982Z,23.70
2018-07-17T21:30:17.853Z,23.70
2018-07-17T21:32:46.621Z,23.80
2018-07-17T21:35:15.502Z,23.70
2018-07-17T21:37:44.258Z,23.50
2018-07-17T21:42:41.485Z,23.40
2018-07-17T21:45:10.317Z,23.40
2018-07-17T21:50:07.901Z,23.20
2018-07-17T21:52:36.669Z,23.20
2018-07-17T21:55:05.454Z,23.00
2018-07-17T21:57:34.240Z,23.00
2018-07-17T22:00:03.037Z,23.10
2018-07-17T22:05:00.378Z,23.00
2018-07-17T22:07:29.141Z,23.00
2018-07-17T22:09:57.954Z,22.80
2018-07-17T22:12:26.735Z,22.90
2018-07-17T22:14:55.521Z,22.90
2018-07-17T22:17:24.288Z,22.80
2018-07-17T22:19:53.045Z,22.80
2018-07-17T22:24:50.619Z,22.60
2018-07-17T22:29:47.935Z,22.40
2018-07-17T22:32:16.785Z,22.50
2018-07-17T22:34:45.561Z,22.40
2018-07-17T22:37:14.457Z,22.30
2018-07-17T22:39:43.137Z,22.00
2018-07-17T22:42:11.922Z,22.10
2018-07-17T22:44:40.678Z,22.00
2018-07-17T22:47:09.485Z,22.00
2018-07-17T22:49:38.260Z,22.00
2018-07-17T22:52:07.048Z,21.90
2018-07-17T22:54:35.822Z,21.90
2018-07-17T22:57:04.621Z,21.90
2018-07-17T22:59:33.374Z,22.00
2018-07-17T23:02:02.322Z,21.90
2018-07-17T23:04:31.054Z,21.70
2018-07-17T23:06:59.838Z,21.70
2018-07-17T23:09:28.606Z,21.80
2018-07-17T23:14:25.873Z,21.70
2018-07-17T23:19:23.118Z,21.60
2018-07-17T23:21:51.977Z,21.50
2018-07-17T23:24:20.771Z,21.40
2018-07-17T23:26:49.637Z,21.40
2018-07-17T23:29:18.401Z,21.40
2018-07-17T23:36:44.130Z,21.30
2018-07-17T23:39:12.945Z,21.40
2018-07-17T23:44:10.568Z,21.10
2018-07-17T23:46:39.356Z,21.20
2018-07-17T23:49:08.122Z,21.20
2018-07-17T23:51:36.893Z,21.00
2018-07-17T23:56:34.201Z,21.00
2018-07-17T23:59:02.957Z,21.00
